createdAt,value
2017-11-25T00:01:47.913Z,19.00
2017-11-25T00:04:22.269Z,17.80
2017-11-25T00:06:57.481Z,17.67
2017-11-25T00:09:31.911Z,18.45
2017-11-25T00:12:06.383Z,18.90
2017-11-25T00:14:40.982Z,21.15
2017-11-25T00:17:15.344Z,18.83
2017-11-25T00:19:49.659Z,26.15
2017-11-25T00:22:24.847Z,22.58
2017-11-25T00:25:00.761Z,25.17
2017-11-25T00:27:35.680Z,25.60
2017-11-25T00:30:11.012Z,22.90
2017-11-25T00:32:46.213Z,22.20
2017-11-25T00:35:20.488Z,25.58
2017-11-25T00:37:55.662Z,26.17
2017-11-25T00:40:30.858Z,30.75
2017-11-25T00:43:05.304Z,29.73
2017-11-25T00:45:40.560Z,35.63
2017-11-25T00:48:14.972Z,39.72
2017-11-25T00:50:49.323Z,39.15
2017-11-25T00:53:23.833Z,34.47
2017-11-25T00:55:58.161Z,32.00
2017-11-25T00:58:33.221Z,55.55
2017-11-25T01:01:07.666Z,29.67
2017-11-25T01:03:42.796Z,51.58
2017-11-25T01:06:17.193Z,31.37
2017-11-25T01:08:51.576Z,28.62
2017-11-25T01:11:26.049Z,43.05
2017-11-25T01:14:00.526Z,39.72
2017-11-25T01:16:35.044Z,67.57
2017-11-25T01:19:09.521Z,27.87
2017-11-25T01:21:43.898Z,37.65
2017-11-25T01:24:18.304Z,24.05
2017-11-25T01:26:52.688Z,36.80
2017-11-25T01:29:27.197Z,16.90
2017-11-25T01:32:01.653Z,41.83
2017-11-25T01:34:35.990Z,35.25
2017-11-25T01:37:10.341Z,37.70
2017-11-25T01:39:44.677Z,45.72
2017-11-25T01:42:19.037Z,28.50
2017-11-25T01:44:53.395Z,23.60
2017-11-25T01:47:28.089Z,46.25
2017-11-25T01:50:02.497Z,46.35
2017-11-25T01:52:36.953Z,47.38
2017-11-25T01:55:12.218Z,33.17
2017-11-25T01:57:46.580Z,31.85
2017-11-25T02:00:21.075Z,34.08
2017-11-25T02:02:55.354Z,25.92
2017-11-25T02:05:29.800Z,70.72
2017-11-25T02:08:04.166Z,25.70
2017-11-25T02:10:38.656Z,19.90
2017-11-25T02:13:13.142Z,35.65
2017-11-25T02:15:47.656Z,28.45
2017-11-25T02:18:22.050Z,34.25
2017-11-25T02:20:56.547Z,41.50
2017-11-25T02:23:31.001Z,33.35
2017-11-25T02:26:05.453Z,27.42
2017-11-25T02:28:39.969Z,57.85
2017-11-25T02:31:14.433Z,23.50
2017-11-25T02:33:49.661Z,20.37
2017-11-25T02:36:24.037Z,31.20
2017-11-25T02:38:58.329Z,33.70
2017-11-25T02:41:32.756Z,36.85
2017-11-25T02:44:07.143Z,35.88
2017-11-25T02:46:41.455Z,19.58
2017-11-25T02:49:15.898Z,30.17
2017-11-25T02:51:50.246Z,33.95
2017-11-25T02:54:24.679Z,51.50
2017-11-25T02:56:59.001Z,40.63
2017-11-25T02:59:33.491Z,22.37
2017-11-25T03:02:07.948Z,32.40
2017-11-25T03:04:42.330Z,41.15
2017-11-25T03:07:16.825Z,59.05
2017-11-25T03:09:51.257Z,43.30
2017-11-25T03:12:25.710Z,37.60
2017-11-25T03:15:00.047Z,45.08
2017-11-25T03:17:34.568Z,52.08
2017-11-25T03:20:09.044Z,52.08
2017-11-25T03:22:43.488Z,39.72
2017-11-25T03:25:17.997Z,78.15
2017-11-25T03:27:52.471Z,70.45
2017-11-25T03:30:26.968Z,46.55
2017-11-25T03:33:02.093Z,58.38
2017-11-25T03:35:36.530Z,52.72
2017-11-25T03:38:11.740Z,68.37
2017-11-25T03:40:46.139Z,37.45
2017-11-25T03:43:20.574Z,56.97
2017-11-25T03:45:54.888Z,90.18
2017-11-25T03:48:29.342Z,59.08
2017-11-25T03:51:03.753Z,49.00
2017-11-25T03:53:38.238Z,67.07
2017-11-25T03:56:12.702Z,77.75
2017-11-25T03:58:47.153Z,67.80
2017-11-25T04:01:21.601Z,61.35
2017-11-25T04:03:56.765Z,53.92
2017-11-25T04:06:31.128Z,52.67
2017-11-25T04:09:05.506Z,63.97
2017-11-25T04:11:40.025Z,74.20
2017-11-25T04:14:14.445Z,56.22
2017-11-25T04:16:48.751Z,57.47
2017-11-25T04:19:24.011Z,48.25
2017-11-25T04:21:58.392Z,46.78
2017-11-25T04:24:32.749Z,49.88
2017-11-25T04:27:07.952Z,47.53
2017-11-25T04:29:42.515Z,49.03
2017-11-25T04:32:16.956Z,57.47
2017-11-25T04:34:51.440Z,52.20
2017-11-25T04:37:26.633Z,49.25
2017-11-25T04:40:01.058Z,41.42
2017-11-25T04:42:35.603Z,45.65
2017-11-25T04:45:10.005Z,48.70
2017-11-25T04:47:45.292Z,44.83
2017-11-25T04:50:19.757Z,52.42
2017-11-25T04:52:54.191Z,46.58
2017-11-25T04:55:28.640Z,62.75
2017-11-25T04:58:03.085Z,69.12
2017-11-25T05:00:37.557Z,52.97
2017-11-25T05:03:11.979Z,47.35
2017-11-25T05:05:47.203Z,43.15
2017-11-25T05:08:21.674Z,75.62
2017-11-25T05:10:56.028Z,47.62
2017-11-25T05:13:30.475Z,56.03
2017-11-25T05:16:04.948Z,66.07
2017-11-25T05:18:39.264Z,55.42
2017-11-25T05:21:13.740Z,77.62
2017-11-25T05:23:48.229Z,41.53
2017-11-25T05:26:22.680Z,53.38
2017-11-25T05:28:57.124Z,41.67
2017-11-25T05:31:31.512Z,58.38
2017-11-25T05:34:05.964Z,76.45
2017-11-25T05:36:40.458Z,70.72
2017-11-25T05:39:14.889Z,52.20
2017-11-25T05:41:49.319Z,77.28
2017-11-25T05:44:23.640Z,60.70
2017-11-25T05:46:58.017Z,52.10
2017-11-25T05:49:32.462Z,59.10
2017-11-25T05:52:06.825Z,48.75
2017-11-25T05:54:41.321Z,60.08
2017-11-25T05:57:15.746Z,45.70
2017-11-25T05:59:50.091Z,48.70
2017-11-25T06:02:25.450Z,68.55
2017-11-25T06:04:59.887Z,52.03
2017-11-25T06:07:34.403Z,70.05
2017-11-25T06:10:08.721Z,53.55
2017-11-25T06:12:43.048Z,41.28
2017-11-25T06:15:17.463Z,48.70
2017-11-25T06:17:51.861Z,37.17
2017-11-25T06:20:26.173Z,29.45
2017-11-25T06:23:01.257Z,32.97
2017-11-25T06:25:35.770Z,46.40
2017-11-25T06:28:10.196Z,31.98
2017-11-25T06:30:44.507Z,49.20
2017-11-25T06:33:18.913Z,49.45
2017-11-25T06:35:54.044Z,34.95
2017-11-25T06:38:28.340Z,43.58
2017-11-25T06:41:03.619Z,32.88
2017-11-25T06:43:38.827Z,29.60
2017-11-25T06:46:13.382Z,33.90
2017-11-25T06:48:47.748Z,60.97
2017-11-25T06:51:22.246Z,58.90
2017-11-25T06:53:57.519Z,44.92
2017-11-25T06:56:32.024Z,73.30
2017-11-25T06:59:06.449Z,77.45
2017-11-25T07:01:40.941Z,76.40
2017-11-25T07:04:15.385Z,68.15
2017-11-25T07:06:49.841Z,53.10
2017-11-25T07:09:24.137Z,53.22
2017-11-25T07:11:58.547Z,55.38
2017-11-25T07:14:33.658Z,57.38
2017-11-25T07:17:08.188Z,54.97
2017-11-25T07:19:42.563Z,56.20
2017-11-25T07:22:16.969Z,116.40
2017-11-25T07:24:51.465Z,41.45
2017-11-25T07:27:25.916Z,65.75
2017-11-25T07:30:00.331Z,51.08
2017-11-25T07:32:34.753Z,48.70
2017-11-25T07:35:09.218Z,54.22
2017-11-25T07:37:43.676Z,61.37
2017-11-25T07:40:18.146Z,72.18
2017-11-25T07:42:52.716Z,53.17
2017-11-25T07:45:28.065Z,54.33
2017-11-25T07:48:02.427Z,45.97
2017-11-25T07:50:36.923Z,46.45
2017-11-25T07:53:11.459Z,47.85
2017-11-25T07:55:45.847Z,30.00
2017-11-25T07:58:21.102Z,36.97
2017-11-25T08:00:55.428Z,30.88
2017-11-25T08:03:29.988Z,65.85
2017-11-25T08:06:04.365Z,39.40
2017-11-25T08:08:38.917Z,50.70
2017-11-25T08:11:13.396Z,45.78
2017-11-25T08:13:49.835Z,31.55
2017-11-25T08:16:26.780Z,59.78
2017-11-25T08:19:01.305Z,40.30
2017-11-25T08:21:36.412Z,44.92
2017-11-25T08:24:10.730Z,39.22
2017-11-25T08:26:45.388Z,31.23
2017-11-25T08:29:19.810Z,36.17
2017-11-25T08:31:54.283Z,71.10
2017-11-25T08:34:28.641Z,49.75
2017-11-25T08:37:03.202Z,49.30
2017-11-25T08:39:37.668Z,51.65
2017-11-25T08:42:12.111Z,55.72
2017-11-25T08:44:46.571Z,61.35
2017-11-25T08:47:21.027Z,75.20
2017-11-25T08:49:55.412Z,54.22
2017-11-25T08:52:30.594Z,51.15
2017-11-25T08:55:05.184Z,83.65
2017-11-25T08:57:39.564Z,37.22
2017-11-25T09:00:13.896Z,34.80
2017-11-25T09:02:48.341Z,48.53
2017-11-25T09:05:23.633Z,40.47
2017-11-25T09:07:57.984Z,74.90
2017-11-25T09:10:32.510Z,61.58
2017-11-25T09:13:07.056Z,60.85
2017-11-25T09:15:41.381Z,40.03
2017-11-25T09:18:15.822Z,33.97
2017-11-25T09:20:50.272Z,59.85
2017-11-25T09:23:24.708Z,59.92
2017-11-25T09:25:59.114Z,53.30
2017-11-25T09:28:33.584Z,43.03
2017-11-25T09:31:07.983Z,45.53
2017-11-25T09:33:42.421Z,32.85
2017-11-25T09:36:16.951Z,61.75
2017-11-25T09:38:51.444Z,41.83
2017-11-25T09:41:25.928Z,41.55
2017-11-25T09:44:00.412Z,47.90
2017-11-25T09:46:34.808Z,44.55
2017-11-25T09:49:09.347Z,44.13
2017-11-25T09:51:43.643Z,45.22
2017-11-25T09:54:18.064Z,51.55
2017-11-25T09:56:52.663Z,25.42
2017-11-25T09:59:27.234Z,34.53
2017-11-25T10:02:01.772Z,37.15
2017-11-25T10:04:37.101Z,39.70
2017-11-25T10:07:11.576Z,51.10
2017-11-25T10:09:46.042Z,40.65
2017-11-25T10:12:20.333Z,42.25
2017-11-25T10:14:54.833Z,29.42
2017-11-25T10:17:29.277Z,36.70
2017-11-25T10:20:03.616Z,56.28
2017-11-25T10:22:38.029Z,18.98
2017-11-25T10:25:12.564Z,23.12
2017-11-25T10:27:46.898Z,20.60
2017-11-25T10:30:21.486Z,23.52
2017-11-25T10:32:55.844Z,16.30
2017-11-25T10:35:31.224Z,24.17
2017-11-25T10:38:06.526Z,18.42
2017-11-25T10:40:40.990Z,20.77
2017-11-25T10:43:16.436Z,27.60
2017-11-25T10:45:50.910Z,17.67
2017-11-25T10:48:25.451Z,21.08
2017-11-25T10:50:59.878Z,16.10
2017-11-25T10:53:34.498Z,30.35
2017-11-25T10:56:09.634Z,18.10
2017-11-25T10:58:44.776Z,23.17
2017-11-25T11:01:19.219Z,41.08
2017-11-25T11:03:53.573Z,28.87
2017-11-25T11:06:28.029Z,32.35
2017-11-25T11:09:02.454Z,33.40
2017-11-25T11:11:36.773Z,19.05
2017-11-25T11:14:11.269Z,28.62
2017-11-25T11:16:45.608Z,28.38
2017-11-25T11:19:19.947Z,17.67
2017-11-25T11:21:54.356Z,18.42
2017-11-25T11:24:28.770Z,17.58
2017-11-25T11:27:04.156Z,18.90
2017-11-25T11:29:38.503Z,20.67
2017-11-25T11:32:13.699Z,30.45
2017-11-25T11:34:48.162Z,27.60
2017-11-25T11:37:22.529Z,27.37
2017-11-25T11:39:57.026Z,22.95
2017-11-25T11:42:31.428Z,21.33
2017-11-25T11:45:05.859Z,20.40
2017-11-25T11:47:40.221Z,20.67
2017-11-25T11:50:14.561Z,22.80
2017-11-25T11:52:49.030Z,15.05
2017-11-25T11:55:23.553Z,17.05
2017-11-25T11:57:57.959Z,13.73
2017-11-25T12:00:32.472Z,15.13
2017-11-25T12:03:06.944Z,18.52
2017-11-25T12:05:42.321Z,12.65
2017-11-25T12:08:16.824Z,15.65
2017-11-25T12:10:51.266Z,17.80
2017-11-25T12:13:25.736Z,15.80
2017-11-25T12:16:00.219Z,13.10
2017-11-25T12:18:34.728Z,15.48
2017-11-25T12:21:09.111Z,15.52
2017-11-25T12:23:44.373Z,18.12
2017-11-25T12:26:18.701Z,20.98
2017-11-25T12:28:53.060Z,15.93
2017-11-25T12:31:27.532Z,20.58
2017-11-25T12:34:02.002Z,19.65
2017-11-25T12:36:36.490Z,24.37
2017-11-25T12:39:10.973Z,24.92
2017-11-25T12:41:45.456Z,19.00
2017-11-25T12:44:19.824Z,20.35
2017-11-25T12:46:54.321Z,16.05
2017-11-25T12:49:28.840Z,19.00
2017-11-25T12:52:04.038Z,8.63
2017-11-25T12:54:39.317Z,16.40
2017-11-25T12:57:13.769Z,20.50
2017-11-25T12:59:48.173Z,17.37
2017-11-25T13:02:22.652Z,18.98
2017-11-25T13:04:57.796Z,23.17
2017-11-25T13:07:32.274Z,15.93
2017-11-25T13:10:06.845Z,17.08
2017-11-25T13:12:41.388Z,16.90
2017-11-25T13:15:15.897Z,16.17
2017-11-25T13:17:51.099Z,16.62
2017-11-25T13:20:25.695Z,13.32
2017-11-25T13:23:00.192Z,16.37
2017-11-25T13:25:34.689Z,19.27
2017-11-25T13:28:09.328Z,16.15
2017-11-25T13:30:43.737Z,14.77
2017-11-25T13:33:18.459Z,17.48
2017-11-25T13:35:52.773Z,17.65
2017-11-25T13:38:27.215Z,14.32
2017-11-25T13:41:01.716Z,14.70
2017-11-25T13:43:36.207Z,14.63
2017-11-25T13:46:10.631Z,13.30
2017-11-25T13:48:44.969Z,14.68
2017-11-25T13:51:19.344Z,14.18
2017-11-25T13:53:53.681Z,12.80
2017-11-25T13:56:28.114Z,13.98
2017-11-25T13:59:02.662Z,13.32
2017-11-25T14:01:37.183Z,15.77
2017-11-25T14:04:11.737Z,14.52
2017-11-25T14:06:46.178Z,15.07
2017-11-25T14:09:20.626Z,20.75
2017-11-25T14:11:55.079Z,11.35
2017-11-25T14:14:29.583Z,21.37
2017-11-25T14:17:03.912Z,18.27
2017-11-25T14:19:38.314Z,19.23
2017-11-25T14:22:12.705Z,17.95
2017-11-25T14:27:44.626Z,21.02
2017-11-25T14:30:19.719Z,14.48
2017-11-25T14:32:54.974Z,12.25
2017-11-25T14:35:29.260Z,22.00
2017-11-25T14:38:03.596Z,12.10
2017-11-25T14:40:38.106Z,18.48
2017-11-25T14:43:12.492Z,16.52
2017-11-25T14:45:46.852Z,20.73
2017-11-25T14:48:21.334Z,19.73
2017-11-25T14:50:55.828Z,19.98
2017-11-25T14:53:30.355Z,24.75
2017-11-25T14:56:05.559Z,20.77
2017-11-25T14:58:39.964Z,18.40
2017-11-25T15:01:14.398Z,16.48
2017-11-25T15:03:48.705Z,20.67
2017-11-25T15:06:22.995Z,22.20
2017-11-25T15:08:57.454Z,23.17
2017-11-25T15:11:31.895Z,16.15
2017-11-25T15:14:06.222Z,24.30
2017-11-25T15:16:41.526Z,20.52
2017-11-25T15:19:15.833Z,25.65
2017-11-25T15:21:50.149Z,19.52
2017-11-25T15:24:25.395Z,24.98
2017-11-25T15:26:59.780Z,22.65
2017-11-25T15:29:34.887Z,26.35
2017-11-25T15:32:09.333Z,16.90
2017-11-25T15:34:44.494Z,12.30
2017-11-25T15:37:18.888Z,20.05
2017-11-25T15:39:54.158Z,10.98
2017-11-25T15:42:28.653Z,13.25
2017-11-25T15:45:03.090Z,36.08
2017-11-25T15:47:37.572Z,7.35
2017-11-25T15:50:12.021Z,15.10
2017-11-25T15:52:46.410Z,20.15
2017-11-25T15:55:20.873Z,21.48
2017-11-25T15:57:55.237Z,19.33
2017-11-25T16:00:29.577Z,22.40
2017-11-25T16:03:04.101Z,24.87
2017-11-25T16:05:38.455Z,23.12
2017-11-25T16:08:12.784Z,18.27
2017-11-25T16:10:47.227Z,24.58
2017-11-25T16:13:21.524Z,22.58
2017-11-25T16:15:55.852Z,23.33
2017-11-25T16:18:30.172Z,28.83
2017-11-25T16:21:05.328Z,28.50
2017-11-25T16:23:39.825Z,18.92
2017-11-25T16:26:14.352Z,18.60
2017-11-25T16:28:48.779Z,23.95
2017-11-25T16:31:23.246Z,19.98
2017-11-25T16:33:58.449Z,12.40
2017-11-25T16:36:32.881Z,18.42
2017-11-25T16:42:11.037Z,26.25
2017-11-25T16:44:45.520Z,25.75
2017-11-25T16:47:19.968Z,7.15
2017-11-25T16:49:54.436Z,26.02
2017-11-25T16:52:28.945Z,21.23
2017-11-25T16:55:03.421Z,5.03
2017-11-25T16:57:38.501Z,33.47
2017-11-25T17:00:12.948Z,31.12
2017-11-25T17:02:47.368Z,19.35
2017-11-25T17:05:21.857Z,23.33
2017-11-25T17:07:56.248Z,21.50
2017-11-25T17:10:30.571Z,26.65
2017-11-25T17:13:05.047Z,25.85
2017-11-25T17:15:39.512Z,28.60
2017-11-25T17:18:15.591Z,28.67
2017-11-25T17:20:50.055Z,29.90
2017-11-25T17:23:24.667Z,20.25
2017-11-25T17:25:59.149Z,23.30
2017-11-25T17:28:33.624Z,30.25
2017-11-25T17:31:08.117Z,24.05
2017-11-25T17:33:43.339Z,26.15
2017-11-25T17:36:18.571Z,27.37
2017-11-25T17:38:52.915Z,27.85
2017-11-25T17:41:27.336Z,27.50
2017-11-25T17:44:01.859Z,26.45
2017-11-25T17:46:36.273Z,17.58
2017-11-25T17:49:10.759Z,30.02
2017-11-25T17:51:45.892Z,16.58
2017-11-25T17:54:20.536Z,19.55
2017-11-25T17:56:54.840Z,19.60
2017-11-25T17:59:29.182Z,29.25
2017-11-25T18:02:03.680Z,17.40
2017-11-25T18:04:37.993Z,17.67
2017-11-25T18:07:12.452Z,12.25
2017-11-25T18:09:47.557Z,16.60
2017-11-25T18:12:22.067Z,17.73
2017-11-25T18:14:57.403Z,20.65
2017-11-25T18:17:31.907Z,13.77
2017-11-25T18:20:06.446Z,16.20
2017-11-25T18:22:41.535Z,14.73
2017-11-25T18:25:16.078Z,17.62
2017-11-25T18:27:50.446Z,15.00
2017-11-25T18:30:25.013Z,21.48
2017-11-25T18:32:59.348Z,31.30
2017-11-25T18:35:33.805Z,18.05
2017-11-25T18:38:08.164Z,18.33
2017-11-25T18:40:42.606Z,15.48
2017-11-25T18:43:17.875Z,12.40
2017-11-25T18:45:53.093Z,13.60
2017-11-25T18:48:27.474Z,13.45
2017-11-25T18:51:02.061Z,14.82
2017-11-25T18:53:36.489Z,8.88
2017-11-25T18:56:10.953Z,9.80
2017-11-25T18:58:45.310Z,9.15
2017-11-25T19:01:19.664Z,8.60
2017-11-25T19:03:54.810Z,10.15
2017-11-25T19:06:29.141Z,9.88
2017-11-25T19:09:03.505Z,11.50
2017-11-25T19:11:37.962Z,6.47
2017-11-25T19:14:12.518Z,6.50
2017-11-25T19:16:47.717Z,6.80
2017-11-25T19:19:22.378Z,8.15
2017-11-25T19:21:56.712Z,3.15
2017-11-25T19:24:31.108Z,2.95
2017-11-25T19:27:05.646Z,5.95
2017-11-25T19:29:40.094Z,2.80
2017-11-25T19:32:14.633Z,7.95
2017-11-25T19:34:49.124Z,7.72
2017-11-25T19:37:23.609Z,0.98
2017-11-25T19:39:57.988Z,1.92
2017-11-25T19:42:32.427Z,3.55
2017-11-25T19:45:06.928Z,3.25
2017-11-25T19:47:41.440Z,2.00
2017-11-25T19:50:16.770Z,2.28
2017-11-25T19:52:51.189Z,9.73
2017-11-25T19:55:25.542Z,10.75
2017-11-25T19:57:59.922Z,3.83
2017-11-25T20:00:34.375Z,13.70
2017-11-25T20:03:08.795Z,7.25
2017-11-25T20:05:43.149Z,2.80
2017-11-25T20:08:17.649Z,2.40
2017-11-25T20:13:56.527Z,2.80
2017-11-25T20:16:31.419Z,3.28
2017-11-25T20:19:06.507Z,2.85
2017-11-25T20:21:40.807Z,1.80
2017-11-25T20:24:15.253Z,4.15
2017-11-25T20:26:49.692Z,4.12
2017-11-25T20:29:24.013Z,3.67
2017-11-25T20:31:58.476Z,2.62
2017-11-25T20:34:33.905Z,1.40
2017-11-25T20:37:08.262Z,1.42
2017-11-25T20:39:42.653Z,2.00
2017-11-25T20:42:17.107Z,1.58
2017-11-25T20:44:51.418Z,1.75
2017-11-25T20:47:26.671Z,1.40
2017-11-25T20:50:01.096Z,2.83
2017-11-25T20:52:35.512Z,5.78
2017-11-25T20:55:09.903Z,5.03
2017-11-25T20:57:44.318Z,1.35
2017-11-25T21:00:18.871Z,2.60
2017-11-25T21:02:53.300Z,0.95
2017-11-25T21:05:27.701Z,3.05
2017-11-25T21:08:02.041Z,1.60
2017-11-25T21:10:36.484Z,1.25
2017-11-25T21:13:10.885Z,1.20
2017-11-25T21:15:45.411Z,1.62
2017-11-25T21:18:19.902Z,1.12
2017-11-25T21:20:54.404Z,1.60
2017-11-25T21:23:28.892Z,1.85
2017-11-25T21:26:03.252Z,5.03
2017-11-25T21:28:37.778Z,4.75
2017-11-25T21:31:12.242Z,1.55
2017-11-25T21:33:46.521Z,9.68
2017-11-25T21:36:20.865Z,4.55
2017-11-25T21:38:55.388Z,4.37
2017-11-25T21:41:29.709Z,8.15
2017-11-25T21:44:04.242Z,4.53
2017-11-25T21:46:38.828Z,5.30
2017-11-25T21:49:13.283Z,5.97
2017-11-25T21:51:48.035Z,4.87
2017-11-25T21:54:22.449Z,3.15
2017-11-25T21:56:56.842Z,6.55
2017-11-25T21:59:31.236Z,6.80
2017-11-25T22:02:05.713Z,6.85
2017-11-25T22:04:40.065Z,4.78
2017-11-25T22:07:15.179Z,4.95
2017-11-25T22:09:49.616Z,3.67
2017-11-25T22:12:24.077Z,4.50
2017-11-25T22:14:58.576Z,1.85
2017-11-25T22:17:32.957Z,3.58
2017-11-25T22:20:07.329Z,0.70
2017-11-25T22:25:45.065Z,0.70
2017-11-25T22:28:19.602Z,3.85
2017-11-25T22:30:54.063Z,3.12
2017-11-25T22:33:28.499Z,2.22
2017-11-25T22:36:03.101Z,3.20
2017-11-25T22:38:37.510Z,2.58
2017-11-25T22:41:12.001Z,2.20
2017-11-25T22:43:46.419Z,3.70
2017-11-25T22:46:20.751Z,0.32
2017-11-25T22:48:55.532Z,1.00
2017-11-25T22:51:30.824Z,0.70
2017-11-25T22:54:05.336Z,3.08
2017-11-25T22:56:39.908Z,5.97
2017-11-25T22:59:15.120Z,2.92
2017-11-25T23:01:49.522Z,10.30
2017-11-25T23:04:23.916Z,6.78
2017-11-25T23:06:58.309Z,0.70
2017-11-25T23:09:33.518Z,4.03
2017-11-25T23:12:07.993Z,2.95
2017-11-25T23:14:42.331Z,1.67
2017-11-25T23:17:16.732Z,1.70
2017-11-25T23:19:51.166Z,7.72
2017-11-25T23:22:26.549Z,2.40
2017-11-25T23:25:01.358Z,1.17
2017-11-25T23:27:35.812Z,4.07
2017-11-25T23:30:10.257Z,2.85
2017-11-25T23:32:44.624Z,10.30
2017-11-25T23:35:19.122Z,4.70
2017-11-25T23:37:53.634Z,2.15
2017-11-25T23:40:27.999Z,8.32
2017-11-25T23:43:02.755Z,2.40
2017-11-25T23:45:37.146Z,4.65
2017-11-25T23:48:11.628Z,4.60
2017-11-25T23:50:46.049Z,2.58
2017-11-25T23:53:20.394Z,3.85
2017-11-25T23:55:54.812Z,3.85
2017-11-25T23:58:29.294Z,2.62
